createdAt,value
2023-01-07T00:00:50.992Z,2.47
2023-01-07T00:03:16.878Z,2.50
2023-01-07T00:05:43.651Z,2.63
2023-01-07T00:08:10.486Z,2.30
2023-01-07T00:10:36.424Z,2.55
2023-01-07T00:13:02.274Z,2.67
2023-01-07T00:15:28.589Z,2.78
2023-01-07T00:17:54.400Z,2.78
2023-01-07T00:20:20.210Z,2.38
2023-01-07T00:22:45.962Z,2.70
2023-01-07T00:25:11.725Z,3.40
2023-01-07T00:27:37.527Z,2.55
2023-01-07T00:30:03.671Z,2.97
2023-01-07T00:33:04.919Z,2.63
2023-01-07T00:35:36.229Z,2.60
2023-01-07T00:38:03.876Z,2.60
2023-01-07T00:40:33.266Z,2.20
2023-01-07T00:43:06.290Z,2.13
2023-01-07T00:45:35.321Z,2.40
2023-01-07T00:48:02.899Z,2.25
2023-01-07T00:50:31.689Z,2.40
2023-01-07T00:52:57.618Z,2.08
2023-01-07T00:55:24.302Z,2.00
2023-01-07T00:57:50.941Z,2.05
2023-01-07T01:00:19.520Z,1.70
2023-01-07T01:02:46.287Z,1.83
2023-01-07T01:05:13.281Z,1.65
2023-01-07T01:07:40.357Z,2.10
2023-01-07T01:10:08.880Z,1.80
2023-01-07T01:12:35.693Z,1.88
2023-01-07T01:15:04.590Z,1.80
2023-01-07T01:17:30.425Z,1.83
2023-01-07T01:19:56.235Z,1.95
2023-01-07T01:22:22.189Z,2.10
2023-01-07T01:24:49.413Z,2.20
2023-01-07T01:27:15.401Z,1.92
2023-01-07T01:29:41.217Z,1.95
2023-01-07T01:32:07.154Z,2.15
2023-01-07T01:34:33.134Z,1.92
2023-01-07T01:36:58.963Z,1.98
2023-01-07T01:39:24.795Z,2.22
2023-01-07T01:41:50.620Z,1.95
2023-01-07T01:44:53.090Z,2.20
2023-01-07T01:47:33.527Z,2.00
2023-01-07T01:50:32.689Z,2.00
2023-01-07T01:53:08.530Z,2.20
2023-01-07T01:55:41.434Z,2.17
2023-01-07T01:58:12.903Z,2.15
2023-01-07T02:00:39.291Z,1.58
2023-01-07T02:05:36.059Z,2.67
2023-01-07T02:08:01.955Z,2.30
2023-01-07T02:10:29.365Z,2.72
2023-01-07T02:13:25.099Z,2.38
2023-01-07T02:16:17.136Z,2.90
2023-01-07T02:18:45.763Z,2.60
2023-01-07T02:21:36.445Z,2.72
2023-01-07T02:24:22.583Z,2.92
2023-01-07T02:26:57.309Z,3.08
2023-01-07T02:29:44.724Z,2.63
2023-01-07T02:32:38.502Z,3.15
2023-01-07T02:35:25.487Z,2.60
2023-01-07T02:38:13.413Z,2.88
2023-01-07T02:41:05.363Z,2.70
2023-01-07T02:43:37.259Z,2.90
2023-01-07T02:46:41.460Z,4.30
2023-01-07T02:49:10.502Z,3.00
2023-01-07T02:51:39.102Z,3.25
2023-01-07T02:54:09.425Z,2.78
2023-01-07T02:56:35.200Z,3.60
2023-01-07T02:59:19.320Z,3.40
2023-01-07T03:01:57.209Z,3.22
2023-01-07T03:04:45.821Z,3.03
2023-01-07T03:08:10.381Z,2.97
2023-01-07T03:10:36.140Z,3.17
2023-01-07T03:13:09.922Z,3.40
2023-01-07T03:15:40.852Z,3.47
2023-01-07T03:18:29.399Z,3.60
2023-01-07T03:21:03.023Z,3.13
2023-01-07T03:23:30.001Z,3.78
2023-01-07T03:26:00.754Z,3.40
2023-01-07T03:28:30.731Z,3.45
2023-01-07T03:30:58.010Z,2.78
2023-01-07T03:33:32.177Z,2.80
2023-01-07T03:36:00.851Z,3.10
2023-01-07T03:38:27.484Z,3.40
2023-01-07T03:40:53.947Z,3.25
2023-01-07T03:43:21.953Z,3.70
2023-01-07T03:45:49.652Z,3.95
2023-01-07T03:48:15.502Z,4.00
2023-01-07T03:50:41.336Z,3.63
2023-01-07T03:53:07.480Z,3.95
2023-01-07T03:55:33.400Z,3.58
2023-01-07T03:57:59.415Z,3.67
2023-01-07T04:00:25.324Z,4.07
2023-01-07T04:02:51.268Z,3.53
2023-01-07T04:05:17.704Z,3.90
2023-01-07T04:07:43.622Z,3.58
2023-01-07T04:10:09.875Z,3.58
2023-01-07T04:12:35.869Z,3.47
2023-01-07T04:15:03.203Z,3.55
2023-01-07T04:17:28.966Z,3.85
2023-01-07T04:19:54.881Z,4.25
2023-01-07T04:22:20.663Z,4.43
2023-01-07T04:24:46.499Z,4.07
2023-01-07T04:27:12.381Z,4.15
2023-01-07T04:29:38.273Z,4.45
2023-01-07T04:32:04.457Z,4.00
2023-01-07T04:34:30.273Z,4.13
2023-01-07T04:36:56.062Z,4.03
2023-01-07T04:39:21.870Z,4.07
2023-01-07T04:41:47.768Z,4.43
2023-01-07T04:44:14.787Z,4.18
2023-01-07T04:46:40.636Z,3.70
2023-01-07T04:49:06.462Z,3.42
2023-01-07T04:51:32.328Z,3.42
2023-01-07T04:53:58.162Z,4.10
2023-01-07T04:56:24.001Z,3.58
2023-01-07T04:58:49.928Z,3.30
2023-01-07T05:01:15.906Z,3.58
2023-01-07T05:03:41.768Z,3.40
2023-01-07T05:06:08.710Z,3.58
2023-01-07T05:08:34.533Z,5.60
2023-01-07T05:11:01.417Z,3.53
2023-01-07T05:13:27.500Z,2.92
2023-01-07T05:15:53.336Z,2.92
2023-01-07T05:18:19.201Z,3.17
2023-01-07T05:20:46.464Z,2.90
2023-01-07T05:23:12.244Z,2.58
2023-01-07T05:25:38.101Z,2.70
2023-01-07T05:28:04.131Z,2.53
2023-01-07T05:30:30.064Z,2.78
2023-01-07T05:32:56.015Z,2.60
2023-01-07T05:35:21.898Z,2.97
2023-01-07T05:37:47.711Z,2.20
2023-01-07T05:40:13.656Z,2.30
2023-01-07T05:42:39.520Z,2.28
2023-01-07T05:45:06.068Z,2.10
2023-01-07T05:47:32.098Z,1.70
2023-01-07T05:49:57.951Z,2.05
2023-01-07T05:52:23.773Z,2.08
2023-01-07T05:54:49.556Z,2.13
2023-01-07T05:57:15.363Z,2.25
2023-01-07T05:59:41.173Z,2.35
2023-01-07T06:02:06.965Z,2.30
2023-01-07T06:04:33.576Z,1.98
2023-01-07T06:07:00.016Z,2.30
2023-01-07T06:09:25.863Z,2.20
2023-01-07T06:11:51.651Z,2.15
2023-01-07T06:14:17.680Z,2.15
2023-01-07T06:16:43.519Z,2.10
2023-01-07T06:19:10.716Z,1.90
2023-01-07T06:21:36.693Z,2.85
2023-01-07T06:24:02.505Z,2.60
2023-01-07T06:26:28.261Z,2.75
2023-01-07T06:28:54.148Z,2.95
2023-01-07T06:31:19.990Z,3.15
2023-01-07T06:33:45.933Z,2.67
2023-01-07T06:36:11.797Z,2.15
2023-01-07T06:38:37.783Z,1.88
2023-01-07T06:41:03.708Z,2.05
2023-01-07T06:43:29.653Z,2.20
2023-01-07T06:45:55.614Z,2.03
2023-01-07T06:48:21.442Z,1.88
2023-01-07T06:50:47.393Z,1.90
2023-01-07T06:53:13.242Z,1.90
2023-01-07T06:55:39.092Z,2.08
2023-01-07T06:58:04.940Z,1.65
2023-01-07T07:00:30.815Z,1.52
2023-01-07T07:02:56.745Z,2.03
2023-01-07T07:05:22.676Z,1.70
2023-01-07T07:07:50.365Z,1.58
2023-01-07T07:10:16.722Z,1.90
2023-01-07T07:12:42.579Z,1.75
2023-01-07T07:15:08.841Z,1.63
2023-01-07T07:17:34.880Z,1.30
2023-01-07T07:20:00.949Z,2.00
2023-01-07T07:22:26.784Z,1.35
2023-01-07T07:24:52.581Z,1.65
2023-01-07T07:27:18.423Z,1.60
2023-01-07T07:29:44.219Z,2.10
2023-01-07T07:32:10.065Z,2.83
2023-01-07T07:34:36.187Z,1.40
2023-01-07T07:37:02.236Z,1.27
2023-01-07T07:39:28.016Z,1.88
2023-01-07T07:41:54.049Z,4.00
2023-01-07T07:44:19.941Z,3.67
2023-01-07T07:46:45.788Z,4.88
2023-01-07T07:49:11.811Z,2.95
2023-01-07T07:51:37.949Z,1.95
2023-01-07T07:54:03.957Z,1.80
2023-01-07T07:56:30.208Z,1.73
2023-01-07T07:58:56.008Z,1.42
2023-01-07T08:01:22.082Z,1.50
2023-01-07T08:03:48.055Z,1.80
2023-01-07T08:06:13.955Z,1.60
2023-01-07T08:08:40.617Z,2.17
2023-01-07T08:11:06.838Z,1.50
2023-01-07T08:13:32.922Z,1.65
2023-01-07T08:15:58.901Z,1.67
2023-01-07T08:18:24.922Z,1.63
2023-01-07T08:20:50.770Z,1.70
2023-01-07T08:23:16.931Z,1.60
2023-01-07T08:25:42.824Z,1.48
2023-01-07T08:28:10.314Z,1.67
2023-01-07T08:30:36.637Z,2.00
2023-01-07T08:33:04.720Z,1.58
2023-01-07T08:35:30.624Z,1.77
2023-01-07T08:38:04.655Z,2.05
2023-01-07T08:40:30.784Z,1.90
2023-01-07T08:43:01.138Z,1.80
2023-01-07T08:45:27.655Z,1.90
2023-01-07T08:47:56.909Z,1.90
2023-01-07T08:50:30.377Z,1.80
2023-01-07T08:52:56.771Z,2.08
2023-01-07T08:55:23.487Z,1.98
2023-01-07T08:57:49.857Z,1.90
2023-01-07T09:00:17.584Z,2.03
2023-01-07T09:02:44.218Z,2.92
2023-01-07T09:05:10.461Z,2.20
2023-01-07T09:07:36.346Z,2.45
2023-01-07T09:10:03.428Z,2.67
2023-01-07T09:12:29.305Z,2.25
2023-01-07T09:14:55.279Z,2.28
2023-01-07T09:17:22.913Z,2.60
2023-01-07T09:19:49.944Z,2.25
2023-01-07T09:22:15.816Z,2.63
2023-01-07T09:24:41.744Z,2.60
2023-01-07T09:27:07.646Z,2.90
2023-01-07T09:29:33.524Z,2.60
2023-01-07T09:31:59.343Z,2.63
2023-01-07T09:34:25.303Z,2.78
2023-01-07T09:36:51.177Z,3.45
2023-01-07T09:39:17.017Z,3.45
2023-01-07T09:41:53.783Z,3.75
2023-01-07T09:44:50.144Z,4.43
2023-01-07T09:49:50.224Z,4.20
2023-01-07T09:52:25.197Z,4.10
2023-01-07T09:54:58.665Z,3.55
2023-01-07T09:57:27.006Z,3.22
2023-01-07T09:59:53.152Z,4.50
2023-01-07T10:02:51.615Z,3.28
2023-01-07T10:05:28.644Z,3.20
2023-01-07T10:08:29.138Z,3.92
2023-01-07T10:11:02.260Z,3.60
2023-01-07T10:13:46.902Z,3.35
2023-01-07T10:16:40.175Z,3.13
2023-01-07T10:19:35.778Z,3.63
2023-01-07T10:22:10.277Z,2.80
2023-01-07T10:24:44.256Z,3.35
2023-01-07T10:27:13.468Z,3.05
2023-01-07T10:29:46.117Z,2.70
2023-01-07T10:32:17.463Z,2.33
2023-01-07T10:34:46.871Z,2.05
2023-01-07T10:37:32.078Z,2.00
2023-01-07T10:40:11.161Z,2.03
2023-01-07T10:42:53.740Z,2.17
2023-01-07T10:45:56.895Z,1.92
2023-01-07T10:48:41.506Z,1.60
2023-01-07T10:51:36.677Z,1.50
2023-01-07T10:54:20.779Z,1.30
2023-01-07T10:56:51.563Z,1.20
2023-01-07T10:59:20.233Z,1.05
2023-01-07T11:01:58.587Z,1.00
2023-01-07T11:04:25.887Z,1.15
2023-01-07T11:07:06.424Z,1.02
2023-01-07T11:09:45.091Z,0.90
2023-01-07T11:12:32.110Z,0.85
2023-01-07T11:15:00.099Z,1.05
2023-01-07T11:17:38.492Z,0.80
2023-01-07T11:20:04.997Z,0.73
2023-01-07T11:22:36.744Z,0.63
2023-01-07T11:25:26.861Z,0.90
2023-01-07T11:27:52.991Z,1.25
2023-01-07T11:30:18.889Z,0.93
2023-01-07T11:32:57.422Z,0.55
2023-01-07T11:35:24.874Z,0.85
2023-01-07T11:37:50.800Z,0.90
2023-01-07T11:40:20.916Z,0.85
2023-01-07T11:45:27.017Z,0.80
2023-01-07T11:48:07.166Z,1.40
2023-01-07T11:50:35.315Z,0.80
2023-01-07T11:53:20.707Z,0.60
2023-01-07T11:56:12.017Z,0.98
2023-01-07T11:58:43.460Z,0.65
2023-01-07T12:01:11.937Z,0.82
2023-01-07T12:04:18.368Z,0.85
2023-01-07T12:06:46.841Z,0.93
2023-01-07T12:09:30.578Z,0.70
2023-01-07T12:12:06.909Z,1.17
2023-01-07T12:14:36.630Z,0.73
2023-01-07T12:17:16.460Z,0.82
2023-01-07T12:20:00.930Z,0.90
2023-01-07T12:22:58.493Z,0.70
2023-01-07T12:25:41.051Z,1.00
2023-01-07T12:28:11.442Z,0.82
2023-01-07T12:31:19.387Z,1.10
2023-01-07T12:33:45.492Z,0.90
2023-01-07T12:36:19.381Z,1.10
2023-01-07T12:38:47.624Z,1.00
2023-01-07T12:41:28.266Z,1.83
2023-01-07T12:43:59.918Z,1.20
2023-01-07T12:46:32.174Z,1.10
2023-01-07T12:49:24.710Z,0.70
2023-01-07T12:51:57.685Z,0.82
2023-01-07T12:54:51.907Z,0.70
2023-01-07T12:57:27.440Z,1.05
2023-01-07T13:02:47.863Z,0.88
2023-01-07T13:05:20.429Z,0.75
2023-01-07T13:08:03.376Z,1.08
2023-01-07T13:10:40.903Z,0.85
2023-01-07T13:13:23.635Z,0.75
2023-01-07T13:15:50.350Z,0.75
2023-01-07T13:18:18.576Z,1.02
2023-01-07T13:21:02.952Z,0.70
2023-01-07T13:23:50.479Z,0.82
2023-01-07T13:26:43.594Z,0.80
2023-01-07T13:29:53.819Z,1.75
2023-01-07T13:32:44.892Z,1.00
2023-01-07T13:35:37.488Z,0.93
2023-01-07T13:38:20.936Z,1.15
2023-01-07T13:41:04.685Z,1.42
2023-01-07T13:43:30.573Z,1.10
2023-01-07T13:46:06.999Z,1.05
2023-01-07T13:48:34.033Z,0.90
2023-01-07T13:51:06.558Z,0.95
2023-01-07T13:53:46.080Z,1.10
2023-01-07T13:56:17.920Z,1.40
2023-01-07T13:58:57.382Z,1.10
2023-01-07T14:01:29.788Z,1.00
2023-01-07T14:03:58.031Z,1.95
2023-01-07T14:06:26.624Z,2.25
2023-01-07T14:09:12.824Z,2.00
2023-01-07T14:12:05.941Z,1.35
2023-01-07T14:15:03.725Z,5.15
2023-01-07T14:17:39.538Z,1.15
2023-01-07T14:20:17.364Z,1.13
2023-01-07T14:22:56.485Z,1.20
2023-01-07T14:26:00.209Z,1.67
2023-01-07T14:28:35.229Z,1.48
2023-01-07T14:31:01.995Z,1.40
2023-01-07T14:33:57.482Z,1.50
2023-01-07T14:36:43.952Z,1.58
2023-01-07T14:39:32.800Z,1.58
2023-01-07T14:42:39.955Z,1.30
2023-01-07T14:45:36.901Z,1.10
2023-01-07T14:48:09.224Z,1.48
2023-01-07T14:51:05.608Z,1.38
2023-01-07T14:54:03.350Z,1.30
2023-01-07T14:56:40.826Z,1.45
2023-01-07T14:59:31.589Z,1.90
2023-01-07T15:02:30.518Z,1.60
2023-01-07T15:05:38.381Z,1.75
2023-01-07T15:08:27.361Z,3.00
2023-01-07T15:11:14.697Z,2.42
2023-01-07T15:14:04.650Z,1.70
2023-01-07T15:16:34.813Z,1.55
2023-01-07T15:19:01.024Z,1.70
2023-01-07T15:21:35.527Z,2.00
2023-01-07T15:24:33.172Z,2.10
2023-01-07T15:27:29.708Z,2.58
2023-01-07T15:30:11.363Z,2.30
2023-01-07T15:32:57.108Z,2.00
2023-01-07T15:35:30.532Z,2.17
2023-01-07T15:37:56.597Z,2.60
2023-01-07T15:40:25.138Z,2.40
2023-01-07T15:42:55.398Z,2.45
2023-01-07T15:45:23.930Z,2.97
2023-01-07T15:47:50.200Z,2.80
2023-01-07T15:50:29.690Z,2.25
2023-01-07T15:52:57.070Z,4.13
2023-01-07T15:55:36.738Z,3.05
2023-01-07T15:58:27.709Z,2.78
2023-01-07T16:00:57.428Z,2.38
2023-01-07T16:03:24.484Z,2.63
2023-01-07T16:05:52.375Z,2.83
2023-01-07T16:08:30.152Z,2.55
2023-01-07T16:10:58.266Z,2.75
2023-01-07T16:13:24.147Z,2.70
2023-01-07T16:15:56.989Z,2.67
2023-01-07T16:18:22.865Z,3.05
2023-01-07T16:20:58.373Z,3.10
2023-01-07T16:26:02.573Z,2.85
2023-01-07T16:28:39.067Z,3.03
2023-01-07T16:31:08.053Z,3.30
2023-01-07T16:33:35.186Z,3.22
2023-01-07T16:36:06.881Z,3.50
2023-01-07T16:38:35.874Z,3.30
2023-01-07T16:41:02.820Z,3.30
2023-01-07T16:43:37.766Z,3.08
2023-01-07T16:46:18.151Z,3.95
2023-01-07T16:48:45.322Z,3.72
2023-01-07T16:51:36.666Z,3.15
2023-01-07T16:54:24.607Z,3.53
2023-01-07T16:57:00.075Z,3.72
2023-01-07T16:59:30.315Z,3.97
2023-01-07T17:01:58.789Z,3.78
2023-01-07T17:04:29.733Z,3.78
2023-01-07T17:06:58.523Z,3.97
2023-01-07T17:09:33.441Z,3.60
2023-01-07T17:11:59.454Z,3.55
2023-01-07T17:14:35.043Z,3.67
2023-01-07T17:19:37.719Z,3.42
2023-01-07T17:22:04.152Z,4.47
2023-01-07T17:24:29.992Z,3.63
2023-01-07T17:26:58.672Z,3.33
2023-01-07T17:29:32.795Z,3.17
2023-01-07T17:31:58.680Z,3.58
2023-01-07T17:34:25.280Z,3.50
2023-01-07T17:36:51.224Z,3.50
2023-01-07T17:39:17.083Z,3.13
2023-01-07T17:42:01.444Z,3.15
2023-01-07T17:44:27.299Z,2.70
2023-01-07T17:46:53.335Z,3.00
2023-01-07T17:49:19.830Z,3.72
2023-01-07T17:51:48.741Z,3.75
2023-01-07T17:54:23.934Z,3.28
2023-01-07T17:56:50.703Z,3.80
2023-01-07T17:59:20.484Z,3.45
2023-01-07T18:01:46.993Z,2.97
2023-01-07T18:04:13.439Z,3.28
2023-01-07T18:06:41.791Z,3.22
2023-01-07T18:09:09.789Z,3.22
2023-01-07T18:11:57.801Z,3.28
2023-01-07T18:14:23.777Z,3.00
2023-01-07T18:16:51.719Z,4.50
2023-01-07T18:19:18.912Z,3.15
2023-01-07T18:21:45.000Z,3.28
2023-01-07T18:24:16.031Z,3.28
2023-01-07T18:26:42.229Z,3.28
2023-01-07T18:29:10.407Z,3.40
2023-01-07T18:31:41.936Z,3.70
2023-01-07T18:34:10.585Z,3.50
2023-01-07T18:36:37.155Z,3.10
2023-01-07T18:39:05.089Z,3.63
2023-01-07T18:41:32.771Z,3.80
2023-01-07T18:43:58.905Z,4.13
2023-01-07T18:46:24.764Z,3.42
2023-01-07T18:48:50.692Z,3.47
2023-01-07T18:51:16.605Z,3.38
2023-01-07T18:53:42.605Z,5.03
2023-01-07T18:56:10.967Z,3.53
2023-01-07T18:58:37.825Z,3.70
2023-01-07T19:01:06.076Z,3.65
2023-01-07T19:03:32.373Z,4.22
2023-01-07T19:05:59.329Z,3.88
2023-01-07T19:08:26.005Z,3.63
2023-01-07T19:10:52.297Z,3.20
2023-01-07T19:13:18.551Z,3.53
2023-01-07T19:15:44.384Z,3.22
2023-01-07T19:18:10.331Z,3.22
2023-01-07T19:20:36.368Z,3.40
2023-01-07T19:23:02.310Z,3.20
2023-01-07T19:25:30.114Z,3.53
2023-01-07T19:27:57.328Z,3.72
2023-01-07T19:30:24.275Z,3.53
2023-01-07T19:32:50.457Z,3.42
2023-01-07T19:35:16.420Z,3.50
2023-01-07T19:37:42.487Z,3.15
2023-01-07T19:40:11.587Z,3.85
2023-01-07T19:42:38.090Z,3.55
2023-01-07T19:45:06.004Z,3.15
2023-01-07T19:47:31.961Z,3.22
2023-01-07T19:49:57.948Z,3.90
2023-01-07T19:52:24.185Z,3.72
2023-01-07T19:54:50.205Z,3.45
2023-01-07T19:57:16.090Z,3.70
2023-01-07T19:59:41.900Z,3.50
2023-01-07T20:02:12.141Z,3.85
2023-01-07T20:04:39.938Z,3.85
2023-01-07T20:07:06.071Z,3.65
2023-01-07T20:09:32.447Z,3.47
2023-01-07T20:11:58.381Z,3.72
2023-01-07T20:14:24.637Z,3.50
2023-01-07T20:16:50.521Z,3.75
2023-01-07T20:19:16.463Z,3.33
2023-01-07T20:21:42.369Z,3.60
2023-01-07T20:24:08.503Z,4.53
2023-01-07T20:26:37.089Z,4.65
2023-01-07T20:29:03.196Z,3.45
2023-01-07T20:31:30.196Z,3.60
2023-01-07T20:33:56.803Z,3.42
2023-01-07T20:36:25.326Z,3.95
2023-01-07T20:38:51.664Z,4.05
2023-01-07T20:41:26.102Z,3.20
2023-01-07T20:43:56.697Z,3.28
2023-01-07T20:46:23.377Z,3.58
2023-01-07T20:48:49.725Z,3.97
2023-01-07T20:51:16.477Z,3.50
2023-01-07T20:53:43.013Z,3.35
2023-01-07T20:56:09.525Z,3.70
2023-01-07T20:58:37.398Z,3.53
2023-01-07T21:01:09.405Z,3.15
2023-01-07T21:03:36.831Z,3.63
2023-01-07T21:06:02.984Z,3.20
2023-01-07T21:08:29.045Z,3.90
2023-01-07T21:10:55.119Z,3.65
2023-01-07T21:13:22.045Z,3.35
2023-01-07T21:15:48.317Z,3.85
2023-01-07T21:18:15.862Z,3.70
2023-01-07T21:20:42.583Z,3.05
2023-01-07T21:23:09.502Z,3.70
2023-01-07T21:25:35.512Z,4.18
2023-01-07T21:28:01.510Z,3.70
2023-01-07T21:30:28.261Z,4.32
2023-01-07T21:32:54.927Z,4.13
2023-01-07T21:35:21.572Z,3.17
2023-01-07T21:37:49.013Z,3.83
2023-01-07T21:40:15.062Z,3.97
2023-01-07T21:42:40.880Z,3.80
2023-01-07T21:45:07.475Z,4.45
2023-01-07T21:47:33.430Z,3.38
2023-01-07T21:49:59.409Z,4.45
2023-01-07T21:52:25.303Z,3.90
2023-01-07T21:54:51.287Z,3.60
2023-01-07T21:57:18.291Z,3.70
2023-01-07T21:59:44.146Z,3.78
2023-01-07T22:02:12.011Z,4.28
2023-01-07T22:04:41.083Z,3.50
2023-01-07T22:07:13.074Z,4.15
2023-01-07T22:09:38.890Z,4.03
2023-01-07T22:12:04.938Z,3.53
2023-01-07T22:14:30.791Z,4.15
2023-01-07T22:16:56.790Z,3.42
2023-01-07T22:19:25.163Z,3.35
2023-01-07T22:21:52.039Z,3.63
2023-01-07T22:24:18.240Z,3.55
2023-01-07T22:26:44.086Z,3.25
2023-01-07T22:29:10.052Z,3.55
2023-01-07T22:31:36.772Z,4.10
2023-01-07T22:34:04.624Z,3.45
2023-01-07T22:36:33.585Z,3.67
2023-01-07T22:39:03.570Z,3.92
2023-01-07T22:41:32.012Z,3.72
2023-01-07T22:44:02.414Z,3.90
2023-01-07T22:46:30.338Z,4.00
2023-01-07T22:48:57.428Z,3.47
2023-01-07T22:51:29.172Z,4.07
2023-01-07T22:53:56.936Z,4.20
2023-01-07T22:56:23.704Z,4.07
2023-01-07T22:58:49.868Z,4.30
2023-01-07T23:01:16.591Z,4.05
2023-01-07T23:03:43.897Z,3.72
2023-01-07T23:06:12.400Z,4.38
2023-01-07T23:08:38.976Z,3.30
2023-01-07T23:11:06.198Z,3.67
2023-01-07T23:13:32.980Z,3.63
2023-01-07T23:16:04.668Z,3.38
2023-01-07T23:18:30.697Z,3.38
2023-01-07T23:20:57.287Z,3.78
2023-01-07T23:23:23.757Z,3.15
2023-01-07T23:25:50.177Z,3.42
2023-01-07T23:28:18.342Z,3.10
2023-01-07T23:30:44.219Z,3.22
2023-01-07T23:33:10.755Z,2.88
2023-01-07T23:35:36.769Z,3.20
2023-01-07T23:38:03.520Z,3.20
2023-01-07T23:40:29.763Z,2.63
2023-01-07T23:42:57.609Z,2.83
2023-01-07T23:45:23.843Z,3.58
2023-01-07T23:47:49.669Z,2.65
2023-01-07T23:50:15.659Z,2.25
2023-01-07T23:52:41.627Z,2.63
2023-01-07T23:55:08.665Z,2.80
2023-01-07T23:57:34.710Z,2.53
